Time,TemperatureF,DewpointF,PressureIn,WindDirection,WindDirectionDegrees,WindSpeedMPH,WindSpeedGustMPH,Humidity,HourlyPrecipIn,Conditions,Clouds,dailyrainin,SoftwareType,DateUTC
2013-02-23 00:00:00,73.6,69.0,30.05,SSE,154,6.0,16.0,84,0.00,,,0.00,weatherlink.com 1.10,2013-02-23 05:00:00,
2013-02-23 00:15:00,73.8,68.0,30.05,SE,125,3.0,15.0,82,0.00,,,0.00,weatherlink.com 1.10,2013-02-23 05:15:00,
2013-02-23 00:30:00,74.1,68.0,30.04,SE,143,4.0,13.0,81,0.00,,,0.00,weatherlink.com 1.10,2013-02-23 05:30:00,
2013-02-23 00:45:00,74.6,69.0,30.04,SE,136,2.0,13.0,82,0.00,,,0.00,weatherlink.com 1.10,2013-02-23 05:45:00,
2013-02-23 01:00:00,74.6,70.0,30.04,SE,129,8.0,15.0,84,0.00,,,0.00,weatherlink.com 1.10,2013-02-23 06:00:00,
2013-02-23 01:15:00,74.6,70.0,30.03,SSE,168,7.0,13.0,85,0.00,,,0.00,weatherlink.com 1.10,2013-02-23 06:15:00,
2013-02-23 01:30:00,74.6,70.0,30.03,SSE,156,4.0,14.0,86,0.00,,,0.00,weatherlink.com 1.10,2013-02-23 06:30:00,
2013-02-23 01:45:00,74.8,70.0,30.02,SE,141,8.0,15.0,85,0.00,,,0.00,weatherlink.com 1.10,2013-02-23 06:45:00,
2013-02-23 02:00:00,74.8,70.0,30.02,SSE,153,6.0,12.0,85,0.00,,,0.00,weatherlink.com 1.10,2013-02-23 07:00:00,
2013-02-23 02:15:00,74.8,70.0,30.01,SE,144,6.0,14.0,85,0.00,,,0.00,weatherlink.com 1.10,2013-02-23 07:15:00,
2013-02-23 02:30:00,74.6,70.0,30.01,SSW,204,7.0,11.0,85,0.00,,,0.00,weatherlink.com 1.10,2013-02-23 07:30:00,
2013-02-23 02:45:00,74.6,70.0,30.01,SSE,151,1.0,15.0,84,0.00,,,0.00,weatherlink.com 1.10,2013-02-23 07:45:00,
2013-02-23 03:00:00,74.6,70.0,30.01,SE,131,4.0,13.0,84,0.00,,,0.00,weatherlink.com 1.10,2013-02-23 08:00:00,
2013-02-23 03:15:00,74.5,69.0,30.00,SSE,156,4.0,14.0,83,0.00,,,0.00,weatherlink.com 1.10,2013-02-23 08:15:00,
2013-02-23 03:30:00,74.5,69.0,30.00,ESE,119,4.0,16.0,83,0.00,,,0.00,weatherlink.com 1.10,2013-02-23 08:30:00,
2013-02-23 03:45:00,74.5,69.0,30.00,SSE,152,0.0,7.0,84,0.00,,,0.00,weatherlink.com 1.10,2013-02-23 08:45:00,
2013-02-23 04:00:00,74.3,69.0,29.99,SSE,162,4.0,14.0,84,0.00,,,0.00,weatherlink.com 1.10,2013-02-23 09:00:00,
2013-02-23 04:18:00,74.3,69.0,29.99,SSE,161,0.0,12.0,84,0.00,,,0.00,weatherlink.com 1.10,2013-02-23 09:18:00,
2013-02-23 04:30:00,74.3,69.0,29.99,SSE,153,3.0,16.0,84,0.00,,,0.00,weatherlink.com 1.10,2013-02-23 09:30:00,
2013-02-23 04:45:00,74.3,69.0,29.99,SSE,151,0.0,18.0,83,0.00,,,0.00,weatherlink.com 1.10,2013-02-23 09:45:00,
2013-02-23 05:00:00,74.3,69.0,29.99,SSE,162,0.0,15.0,83,0.00,,,0.00,weatherlink.com 1.10,2013-02-23 10:00:00,
2013-02-23 05:15:00,74.5,69.0,29.99,SSE,156,4.0,8.0,83,0.00,,,0.00,weatherlink.com 1.10,2013-02-23 10:15:00,
2013-02-23 05:30:00,74.3,69.0,29.99,SSE,166,0.0,12.0,83,0.00,,,0.00,weatherlink.com 1.10,2013-02-23 10:30:00,
2013-02-23 05:45:00,74.3,69.0,30.00,South,176,0.0,15.0,82,0.00,,,0.00,weatherlink.com 1.10,2013-02-23 10:45:00,
2013-02-23 06:00:00,74.5,69.0,30.00,SSE,160,0.0,10.0,83,0.00,,,0.00,weatherlink.com 1.10,2013-02-23 11:00:00,
2013-02-23 06:15:00,74.3,69.0,30.01,South,185,2.0,14.0,83,0.00,,,0.00,weatherlink.com 1.10,2013-02-23 11:15:00,
2013-02-23 06:30:00,74.3,69.0,30.01,SSE,167,8.0,12.0,82,0.00,,,0.00,weatherlink.com 1.10,2013-02-23 11:30:00,
2013-02-23 06:45:00,74.1,68.0,30.01,South,175,0.0,8.0,82,0.00,,,0.00,weatherlink.com 1.10,2013-02-23 11:45:00,
2013-02-23 07:00:00,73.9,68.0,30.01,South,177,5.0,12.0,81,0.00,,,0.00,weatherlink.com 1.10,2013-02-23 12:00:00,
2013-02-23 07:15:00,74.3,68.0,30.01,SSE,152,0.0,9.0,80,0.00,,,0.00,weatherlink.com 1.10,2013-02-23 12:15:00,
2013-02-23 07:30:00,74.8,68.0,30.01,SSE,160,3.0,12.0,79,0.00,,,0.00,weatherlink.com 1.10,2013-02-23 12:30:00,
2013-02-23 07:45:00,75.3,68.0,30.01,SSE,154,0.0,12.0,78,0.00,,,0.00,weatherlink.com 1.10,2013-02-23 12:45:00,
2013-02-23 08:03:00,76.2,69.0,30.02,SE,146,1.0,10.0,77,0.00,,,0.00,weatherlink.com 1.10,2013-02-23 13:03:00,
2013-02-23 08:16:00,76.9,68.0,30.02,South,185,2.0,9.0,75,0.00,,,0.00,weatherlink.com 1.10,2013-02-23 13:16:00,
2013-02-23 08:31:00,76.9,68.0,30.02,SSE,158,4.0,14.0,75,0.00,,,0.00,weatherlink.com 1.10,2013-02-23 13:31:00,
2013-02-23 08:46:00,76.7,69.0,30.02,SE,133,6.0,17.0,77,0.00,,,0.00,weatherlink.com 1.10,2013-02-23 13:46:00,
2013-02-23 09:01:00,77.5,69.0,30.02,SE,137,0.0,17.0,75,0.00,,,0.00,weatherlink.com 1.10,2013-02-23 14:01:00,
2013-02-23 09:16:00,78.2,70.0,30.03,ESE,106,0.0,15.0,75,0.00,,,0.00,weatherlink.com 1.10,2013-02-23 14:16:00,
2013-02-23 09:31:00,77.8,69.0,30.03,South,181,0.0,14.0,75,0.00,,,0.00,weatherlink.com 1.10,2013-02-23 14:31:00,
2013-02-23 09:46:00,77.6,70.0,30.04,SSE,156,0.0,7.0,76,0.00,,,0.00,weatherlink.com 1.10,2013-02-23 14:46:00,
2013-02-23 10:01:00,78.2,69.0,30.04,South,172,1.0,11.0,74,0.00,,,0.00,weatherlink.com 1.10,2013-02-23 15:01:00,
2013-02-23 10:16:00,78.4,70.0,30.04,SSW,198,2.0,17.0,74,0.00,,,0.00,weatherlink.com 1.10,2013-02-23 15:16:00,
2013-02-23 10:31:00,78.4,70.0,30.04,SSE,167,0.0,18.0,75,0.00,,,0.00,weatherlink.com 1.10,2013-02-23 15:31:00,
2013-02-23 10:46:00,78.9,70.0,30.04,SE,139,1.0,14.0,73,0.00,,,0.00,weatherlink.com 1.10,2013-02-23 15:46:00,
2013-02-23 11:01:00,79.5,70.0,30.03,South,171,2.0,16.0,72,0.00,,,0.00,weatherlink.com 1.10,2013-02-23 16:01:00,
2013-02-23 11:16:00,80.0,70.0,30.02,South,181,7.0,16.0,71,0.00,,,0.00,weatherlink.com 1.10,2013-02-23 16:16:00,
2013-02-23 11:31:00,80.0,70.0,30.02,SE,143,3.0,16.0,71,0.00,,,0.00,weatherlink.com 1.10,2013-02-23 16:31:00,
2013-02-23 11:46:00,80.0,69.0,30.01,SE,145,7.0,15.0,70,0.00,,,0.00,weatherlink.com 1.10,2013-02-23 16:46:00,
2013-02-23 12:01:00,80.0,70.0,30.01,SSE,166,3.0,11.0,71,0.00,,,0.00,weatherlink.com 1.10,2013-02-23 17:01:00,
2013-02-23 12:16:00,80.2,70.0,30.00,SSE,161,9.0,16.0,70,0.00,,,0.00,weatherlink.com 1.10,2013-02-23 17:16:00,
2013-02-23 12:31:00,79.8,70.0,29.99,South,186,6.0,15.0,72,0.00,,,0.00,weatherlink.com 1.10,2013-02-23 17:31:00,
2013-02-23 12:46:00,80.0,71.0,29.99,SSE,164,3.0,17.0,73,0.00,,,0.00,weatherlink.com 1.10,2013-02-23 17:46:00,
2013-02-23 13:01:00,79.7,71.0,29.98,SSE,152,6.0,15.0,74,0.00,,,0.00,weatherlink.com 1.10,2013-02-23 18:01:00,
2013-02-23 13:16:00,80.0,71.0,29.98,South,175,2.0,12.0,73,0.00,,,0.00,weatherlink.com 1.10,2013-02-23 18:16:00,
2013-02-23 13:31:00,81.0,71.0,29.97,South,187,0.0,12.0,71,0.00,,,0.00,weatherlink.com 1.10,2013-02-23 18:31:00,
2013-02-23 13:46:00,80.2,70.0,29.96,South,170,4.0,17.0,72,0.00,,,0.00,weatherlink.com 1.10,2013-02-23 18:46:00,
2013-02-23 14:01:00,80.2,71.0,29.96,SSE,164,3.0,15.0,73,0.00,,,0.00,weatherlink.com 1.10,2013-02-23 19:01:00,
2013-02-23 14:16:00,80.0,70.0,29.95,SSW,196,3.0,17.0,72,0.00,,,0.00,weatherlink.com 1.10,2013-02-23 19:16:00,
2013-02-23 14:31:00,80.2,71.0,29.95,SE,130,6.0,18.0,74,0.00,,,0.00,weatherlink.com 1.10,2013-02-23 19:31:00,
2013-02-23 14:46:00,80.2,71.0,29.95,SSE,162,6.0,12.0,73,0.00,,,0.00,weatherlink.com 1.10,2013-02-23 19:46:00,
2013-02-23 15:01:00,80.4,71.0,29.94,SE,125,5.0,16.0,73,0.00,,,0.00,weatherlink.com 1.10,2013-02-23 20:01:00,
2013-02-23 15:16:00,80.2,71.0,29.94,South,177,7.0,13.0,73,0.00,,,0.00,weatherlink.com 1.10,2013-02-23 20:16:00,
2013-02-23 15:31:00,79.7,71.0,29.93,SSE,164,0.0,12.0,75,0.00,,,0.00,weatherlink.com 1.10,2013-02-23 20:31:00,
2013-02-23 15:46:00,80.4,70.0,29.93,South,169,0.0,14.0,71,0.00,,,0.00,weatherlink.com 1.10,2013-02-23 20:46:00,
2013-02-23 16:01:00,79.8,71.0,29.93,SSE,167,8.0,12.0,75,0.00,,,0.00,weatherlink.com 1.10,2013-02-23 21:01:00,
2013-02-23 16:16:00,79.1,71.0,29.93,SSW,196,5.0,15.0,76,0.00,,,0.00,weatherlink.com 1.10,2013-02-23 21:16:00,
2013-02-23 16:31:00,78.9,72.0,29.93,South,189,5.0,11.0,78,0.00,,,0.00,weatherlink.com 1.10,2013-02-23 21:31:00,
2013-02-23 16:48:00,79.1,72.0,29.93,South,173,0.0,10.0,78,0.00,,,0.00,weatherlink.com 1.10,2013-02-23 21:48:00,
2013-02-23 17:01:00,78.9,72.0,29.93,South,179,0.0,10.0,78,0.00,,,0.00,weatherlink.com 1.10,2013-02-23 22:01:00,
2013-02-23 17:16:00,79.1,71.0,29.93,SSE,168,6.0,17.0,75,0.00,,,0.00,weatherlink.com 1.10,2013-02-23 22:16:00,
2013-02-23 17:31:00,79.1,71.0,29.93,SSE,149,0.0,13.0,75,0.00,,,0.00,weatherlink.com 1.10,2013-02-23 22:31:00,
2013-02-23 17:46:00,78.7,71.0,29.93,South,183,0.0,11.0,76,0.00,,,0.00,weatherlink.com 1.10,2013-02-23 22:46:00,
2013-02-23 18:01:00,78.4,71.0,29.93,SSW,211,0.0,14.0,77,0.00,,,0.00,weatherlink.com 1.10,2013-02-23 23:01:00,
2013-02-23 18:16:00,78.0,71.0,29.93,SSE,160,7.0,18.0,79,0.00,,,0.00,weatherlink.com 1.10,2013-02-23 23:16:00,
2013-02-23 18:31:00,77.6,71.0,29.94,South,172,5.0,17.0,79,0.00,,,0.00,weatherlink.com 1.10,2013-02-23 23:31:00,
2013-02-23 18:46:00,77.5,71.0,29.94,South,187,7.0,12.0,80,0.00,,,0.00,weatherlink.com 1.10,2013-02-23 23:46:00,
2013-02-23 19:01:00,77.3,71.0,29.95,South,179,5.0,19.0,81,0.00,,,0.00,weatherlink.com 1.10,2013-02-24 00:01:00,
2013-02-23 19:16:00,77.1,71.0,29.95,SSW,202,0.0,14.0,82,0.00,,,0.00,weatherlink.com 1.10,2013-02-24 00:16:00,
2013-02-23 19:31:00,76.9,71.0,29.95,SSW,208,0.0,12.0,82,0.00,,,0.00,weatherlink.com 1.10,2013-02-24 00:31:00,
2013-02-23 19:46:00,76.7,71.0,29.96,South,171,0.0,9.0,83,0.00,,,0.00,weatherlink.com 1.10,2013-02-24 00:46:00,
2013-02-23 20:01:00,76.6,71.0,29.96,South,181,0.0,10.0,83,0.00,,,0.00,weatherlink.com 1.10,2013-02-24 01:01:00,
2013-02-23 20:16:00,76.6,72.0,29.96,SW,220,0.0,11.0,84,0.00,,,0.00,weatherlink.com 1.10,2013-02-24 01:16:00,
2013-02-23 20:31:00,76.6,72.0,29.96,South,184,0.0,5.0,84,0.00,,,0.00,weatherlink.com 1.10,2013-02-24 01:31:00,
2013-02-23 20:46:00,76.6,72.0,29.97,SSW,200,0.0,7.0,84,0.00,,,0.00,weatherlink.com 1.10,2013-02-24 01:46:00,
2013-02-23 21:01:00,76.4,71.0,29.97,South,171,0.0,9.0,84,0.00,,,0.00,weatherlink.com 1.10,2013-02-24 02:01:00,
2013-02-23 21:16:00,76.2,71.0,29.98,South,183,0.0,7.0,85,0.00,,,0.00,weatherlink.com 1.10,2013-02-24 02:16:00,
2013-02-23 21:31:00,76.0,71.0,29.98,SSW,196,0.0,5.0,85,0.00,,,0.00,weatherlink.com 1.10,2013-02-24 02:31:00,
2013-02-23 21:46:00,75.9,71.0,29.98,SSW,194,0.0,6.0,85,0.00,,,0.00,weatherlink.com 1.10,2013-02-24 02:46:00,
2013-02-23 22:01:00,75.7,71.0,29.98,South,187,0.0,5.0,86,0.00,,,0.00,weatherlink.com 1.10,2013-02-24 03:01:00,
2013-02-23 22:16:00,75.5,71.0,29.98,SSW,200,0.0,7.0,86,0.00,,,0.00,weatherlink.com 1.10,2013-02-24 03:16:00,
2013-02-23 22:31:00,75.3,71.0,29.98,SSW,200,0.0,4.0,87,0.00,,,0.00,weatherlink.com 1.10,2013-02-24 03:31:00,
2013-02-23 22:46:00,75.3,72.0,29.98,SSW,199,0.0,0.0,88,0.00,,,0.00,weatherlink.com 1.10,2013-02-24 03:46:00,
2013-02-23 23:01:00,75.2,72.0,29.98,SSW,200,0.0,1.0,88,0.00,,,0.00,weatherlink.com 1.10,2013-02-24 04:01:00,
2013-02-23 23:16:00,75.2,72.0,29.98,SSW,200,0.0,0.0,88,0.00,,,0.00,weatherlink.com 1.10,2013-02-24 04:16:00,
2013-02-23 23:31:00,75.0,72.0,29.98,SSW,200,0.0,1.0,89,0.00,,,0.00,weatherlink.com 1.10,2013-02-24 04:31:00,
2013-02-23 23:46:00,74.8,71.0,29.98,SSW,199,0.0,0.0,89,0.00,,,0.00,weatherlink.com 1.10,2013-02-24 04:46:00,